sensor_id;sensor_type;location;lat;lon;timestamp;P1;durP1;ratioP1;P2;durP2;ratioP2
83511;SDS011;73446;0.000;0.000;2023-12-28T00:00:48;1.23;;;0.60;;
83511;SDS011;73446;0.000;0.000;2023-12-28T00:03:33;2.20;;;0.75;;
83511;SDS011;73446;0.000;0.000;2023-12-28T00:06:16;1.63;;;0.30;;
83511;SDS011;73446;0.000;0.000;2023-12-28T00:09:01;1.83;;;0.60;;
83511;SDS011;73446;0.000;0.000;2023-12-28T00:11:45;2.13;;;0.40;;
83511;SDS011;73446;0.000;0.000;2023-12-28T00:14:29;1.67;;;0.52;;
83511;SDS011;73446;0.000;0.000;2023-12-28T00:17:13;1.52;;;0.50;;
83511;SDS011;73446;0.000;0.000;2023-12-28T00:19:57;0.85;;;0.40;;
83511;SDS011;73446;0.000;0.000;2023-12-28T00:22:41;2.08;;;0.47;;
83511;SDS011;73446;0.000;0.000;2023-12-28T00:25:25;1.48;;;0.30;;
83511;SDS011;73446;0.000;0.000;2023-12-28T00:28:10;2.00;;;0.35;;
83511;SDS011;73446;0.000;0.000;2023-12-28T00:30:54;1.10;;;0.30;;
83511;SDS011;73446;0.000;0.000;2023-12-28T00:33:38;1.77;;;0.22;;
83511;SDS011;73446;0.000;0.000;2023-12-28T00:36:22;1.35;;;0.45;;
83511;SDS011;73446;0.000;0.000;2023-12-28T00:39:06;1.05;;;0.13;;
83511;SDS011;73446;0.000;0.000;2023-12-28T00:41:51;0.95;;;0.20;;
83511;SDS011;73446;0.000;0.000;2023-12-28T00:44:35;0.65;;;0.20;;
83511;SDS011;73446;0.000;0.000;2023-12-28T00:47:19;0.98;;;0.13;;
83511;SDS011;73446;0.000;0.000;2023-12-28T00:50:03;1.63;;;0.10;;
83511;SDS011;73446;0.000;0.000;2023-12-28T00:52:47;0.50;;;0.10;;
83511;SDS011;73446;0.000;0.000;2023-12-28T00:55:31;1.00;;;0.10;;
83511;SDS011;73446;0.000;0.000;2023-12-28T00:58:15;2.38;;;0.30;;
83511;SDS011;73446;0.000;0.000;2023-12-28T01:00:59;1.13;;;0.17;;
83511;SDS011;73446;0.000;0.000;2023-12-28T01:03:44;0.82;;;0.20;;
83511;SDS011;73446;0.000;0.000;2023-12-28T01:06:28;0.65;;;0.03;;
83511;SDS011;73446;0.000;0.000;2023-12-28T01:09:12;0.60;;;0.10;;
83511;SDS011;73446;0.000;0.000;2023-12-28T01:11:56;0.73;;;0.15;;
83511;SDS011;73446;0.000;0.000;2023-12-28T01:14:41;0.80;;;0.20;;
83511;SDS011;73446;0.000;0.000;2023-12-28T01:17:25;1.15;;;0.28;;
83511;SDS011;73446;0.000;0.000;2023-12-28T01:20:09;1.10;;;0.30;;
83511;SDS011;73446;0.000;0.000;2023-12-28T01:22:53;1.17;;;0.10;;
83511;SDS011;73446;0.000;0.000;2023-12-28T01:25:37;0.80;;;0.10;;
83511;SDS011;73446;0.000;0.000;2023-12-28T01:28:24;0.40;;;0.10;;
83511;SDS011;73446;0.000;0.000;2023-12-28T01:31:09;0.32;;;0.10;;
83511;SDS011;73446;0.000;0.000;2023-12-28T01:33:53;0.75;;;0.10;;
83511;SDS011;73446;0.000;0.000;2023-12-28T01:36:37;1.00;;;0.10;;
83511;SDS011;73446;0.000;0.000;2023-12-28T01:39:25;0.75;;;0.43;;
83511;SDS011;73446;0.000;0.000;2023-12-28T01:42:09;0.90;;;0.35;;
83511;SDS011;73446;0.000;0.000;2023-12-28T01:44:53;1.10;;;0.55;;
83511;SDS011;73446;0.000;0.000;2023-12-28T01:47:37;0.70;;;0.03;;
83511;SDS011;73446;0.000;0.000;2023-12-28T01:50:22;0.43;;;0.03;;
83511;SDS011;73446;0.000;0.000;2023-12-28T01:53:08;0.75;;;0.17;;
83511;SDS011;73446;0.000;0.000;2023-12-28T01:55:52;0.80;;;0.03;;
83511;SDS011;73446;0.000;0.000;2023-12-28T01:58:36;0.52;;;0.10;;
83511;SDS011;73446;0.000;0.000;2023-12-28T02:04:10;1.00;;;0.00;;
83511;SDS011;73446;0.000;0.000;2023-12-28T02:06:56;0.47;;;0.03;;
83511;SDS011;73446;0.000;0.000;2023-12-28T02:09:41;0.82;;;0.10;;
83511;SDS011;73446;0.000;0.000;2023-12-28T02:12:25;0.98;;;0.00;;
83511;SDS011;73446;0.000;0.000;2023-12-28T02:15:09;0.73;;;0.17;;
83511;SDS011;73446;0.000;0.000;2023-12-28T02:17:55;0.60;;;0.10;;
83511;SDS011;73446;0.000;0.000;2023-12-28T02:20:41;0.75;;;0.05;;
83511;SDS011;73446;0.000;0.000;2023-12-28T02:23:26;0.40;;;0.08;;
83511;SDS011;73446;0.000;0.000;2023-12-28T02:26:11;0.30;;;0.10;;
83511;SDS011;73446;0.000;0.000;2023-12-28T02:28:55;0.73;;;0.10;;
83511;SDS011;73446;0.000;0.000;2023-12-28T02:31:39;0.20;;;0.10;;
83511;SDS011;73446;0.000;0.000;2023-12-28T02:34:33;0.30;;;0.00;;
83511;SDS011;73446;0.000;0.000;2023-12-28T02:37:21;0.10;;;0.00;;
83511;SDS011;73446;0.000;0.000;2023-12-28T02:40:06;0.40;;;0.00;;
83511;SDS011;73446;0.000;0.000;2023-12-28T02:42:52;0.40;;;0.00;;
83511;SDS011;73446;0.000;0.000;2023-12-28T02:45:37;0.20;;;0.00;;
83511;SDS011;73446;0.000;0.000;2023-12-28T02:48:21;0.45;;;0.10;;
83511;SDS011;73446;0.000;0.000;2023-12-28T02:51:05;0.30;;;0.00;;
83511;SDS011;73446;0.000;0.000;2023-12-28T02:53:49;0.20;;;0.00;;
83511;SDS011;73446;0.000;0.000;2023-12-28T02:56:34;0.45;;;0.00;;
83511;SDS011;73446;0.000;0.000;2023-12-28T02:59:18;0.22;;;0.10;;
83511;SDS011;73446;0.000;0.000;2023-12-28T03:02:02;0.20;;;0.00;;
83511;SDS011;73446;0.000;0.000;2023-12-28T03:04:46;0.30;;;0.00;;
83511;SDS011;73446;0.000;0.000;2023-12-28T03:07:30;0.45;;;0.08;;
83511;SDS011;73446;0.000;0.000;2023-12-28T03:10:15;0.43;;;0.20;;
83511;SDS011;73446;0.000;0.000;2023-12-28T03:12:59;0.60;;;0.05;;
83511;SDS011;73446;0.000;0.000;2023-12-28T03:15:43;0.20;;;0.05;;
83511;SDS011;73446;0.000;0.000;2023-12-28T03:18:27;0.40;;;0.00;;
83511;SDS011;73446;0.000;0.000;2023-12-28T03:21:11;0.65;;;0.10;;
83511;SDS011;73446;0.000;0.000;2023-12-28T03:23:55;0.40;;;0.25;;
83511;SDS011;73446;0.000;0.000;2023-12-28T03:26:39;0.10;;;0.00;;
83511;SDS011;73446;0.000;0.000;2023-12-28T03:29:23;0.45;;;0.30;;
83511;SDS011;73446;0.000;0.000;2023-12-28T03:32:07;0.35;;;0.00;;
83511;SDS011;73446;0.000;0.000;2023-12-28T03:34:51;0.52;;;0.00;;
83511;SDS011;73446;0.000;0.000;2023-12-28T03:37:36;0.30;;;0.15;;
83511;SDS011;73446;0.000;0.000;2023-12-28T03:40:20;0.35;;;0.10;;
83511;SDS011;73446;0.000;0.000;2023-12-28T03:43:04;0.20;;;0.00;;
83511;SDS011;73446;0.000;0.000;2023-12-28T03:45:48;0.30;;;0.10;;
83511;SDS011;73446;0.000;0.000;2023-12-28T03:48:32;0.38;;;0.17;;
83511;SDS011;73446;0.000;0.000;2023-12-28T03:51:16;0.20;;;0.00;;
83511;SDS011;73446;0.000;0.000;2023-12-28T03:54:00;0.73;;;0.10;;
83511;SDS011;73446;0.000;0.000;2023-12-28T03:56:45;0.08;;;0.00;;
83511;SDS011;73446;0.000;0.000;2023-12-28T03:59:30;0.25;;;0.00;;
83511;SDS011;73446;0.000;0.000;2023-12-28T04:02:14;0.22;;;0.00;;
83511;SDS011;73446;0.000;0.000;2023-12-28T04:04:58;0.40;;;0.00;;
83511;SDS011;73446;0.000;0.000;2023-12-28T04:07:42;0.20;;;0.00;;
83511;SDS011;73446;0.000;0.000;2023-12-28T04:10:31;0.20;;;0.00;;
83511;SDS011;73446;0.000;0.000;2023-12-28T04:13:16;0.30;;;0.00;;
83511;SDS011;73446;0.000;0.000;2023-12-28T04:16:00;0.20;;;0.00;;
83511;SDS011;73446;0.000;0.000;2023-12-28T04:18:44;0.20;;;0.00;;
83511;SDS011;73446;0.000;0.000;2023-12-28T04:21:28;0.30;;;0.00;;
83511;SDS011;73446;0.000;0.000;2023-12-28T04:24:12;0.10;;;0.00;;
83511;SDS011;73446;0.000;0.000;2023-12-28T04:26:56;0.20;;;0.20;;
83511;SDS011;73446;0.000;0.000;2023-12-28T04:29:40;0.20;;;0.00;;
83511;SDS011;73446;0.000;0.000;2023-12-28T04:32:24;0.47;;;0.08;;
83511;SDS011;73446;0.000;0.000;2023-12-28T04:35:09;0.40;;;0.00;;
83511;SDS011;73446;0.000;0.000;2023-12-28T04:37:53;0.40;;;0.00;;
83511;SDS011;73446;0.000;0.000;2023-12-28T04:40:37;0.25;;;0.10;;
83511;SDS011;73446;0.000;0.000;2023-12-28T04:43:21;0.10;;;0.00;;
83511;SDS011;73446;0.000;0.000;2023-12-28T04:46:07;0.10;;;0.00;;
83511;SDS011;73446;0.000;0.000;2023-12-28T04:48:51;0.10;;;0.00;;
83511;SDS011;73446;0.000;0.000;2023-12-28T04:51:35;0.55;;;0.05;;
83511;SDS011;73446;0.000;0.000;2023-12-28T04:54:19;0.22;;;0.00;;
83511;SDS011;73446;0.000;0.000;2023-12-28T04:57:03;0.10;;;0.00;;
83511;SDS011;73446;0.000;0.000;2023-12-28T04:59:48;0.17;;;0.00;;
83511;SDS011;73446;0.000;0.000;2023-12-28T05:02:32;0.10;;;0.00;;
83511;SDS011;73446;0.000;0.000;2023-12-28T05:05:16;0.20;;;0.00;;
83511;SDS011;73446;0.000;0.000;2023-12-28T05:08:02;0.28;;;0.13;;
83511;SDS011;73446;0.000;0.000;2023-12-28T05:10:47;0.10;;;0.00;;
83511;SDS011;73446;0.000;0.000;2023-12-28T05:13:31;0.10;;;0.00;;
83511;SDS011;73446;0.000;0.000;2023-12-28T05:16:15;0.30;;;0.00;;
83511;SDS011;73446;0.000;0.000;2023-12-28T05:18:59;0.25;;;0.00;;
83511;SDS011;73446;0.000;0.000;2023-12-28T05:21:43;0.40;;;0.20;;
83511;SDS011;73446;0.000;0.000;2023-12-28T05:24:27;0.22;;;0.00;;
83511;SDS011;73446;0.000;0.000;2023-12-28T05:27:11;0.22;;;0.00;;
83511;SDS011;73446;0.000;0.000;2023-12-28T05:29:55;0.47;;;0.00;;
83511;SDS011;73446;0.000;0.000;2023-12-28T05:32:39;0.28;;;0.00;;
83511;SDS011;73446;0.000;0.000;2023-12-28T05:35:23;0.20;;;0.00;;
83511;SDS011;73446;0.000;0.000;2023-12-28T05:38:07;0.55;;;0.00;;
83511;SDS011;73446;0.000;0.000;2023-12-28T05:40:52;0.10;;;0.00;;
83511;SDS011;73446;0.000;0.000;2023-12-28T05:43:35;0.10;;;0.00;;
83511;SDS011;73446;0.000;0.000;2023-12-28T05:46:19;0.10;;;0.00;;
83511;SDS011;73446;0.000;0.000;2023-12-28T05:49:04;0.40;;;0.00;;
83511;SDS011;73446;0.000;0.000;2023-12-28T05:51:48;0.30;;;0.00;;
83511;SDS011;73446;0.000;0.000;2023-12-28T05:54:32;0.17;;;0.00;;
83511;SDS011;73446;0.000;0.000;2023-12-28T05:57:16;0.20;;;0.00;;
83511;SDS011;73446;0.000;0.000;2023-12-28T06:00:01;0.05;;;0.00;;
83511;SDS011;73446;0.000;0.000;2023-12-28T06:02:45;0.17;;;0.00;;
83511;SDS011;73446;0.000;0.000;2023-12-28T06:05:30;0.15;;;0.00;;
83511;SDS011;73446;0.000;0.000;2023-12-28T06:08:14;0.22;;;0.15;;
83511;SDS011;73446;0.000;0.000;2023-12-28T06:10:58;0.10;;;0.00;;
83511;SDS011;73446;0.000;0.000;2023-12-28T06:13:43;0.25;;;0.00;;
83511;SDS011;73446;0.000;0.000;2023-12-28T06:16:27;0.20;;;0.00;;
83511;SDS011;73446;0.000;0.000;2023-12-28T06:19:14;0.25;;;0.00;;
83511;SDS011;73446;0.000;0.000;2023-12-28T06:21:59;0.20;;;0.00;;
83511;SDS011;73446;0.000;0.000;2023-12-28T06:24:43;0.20;;;0.00;;
83511;SDS011;73446;0.000;0.000;2023-12-28T06:27:27;0.00;;;0.00;;
83511;SDS011;73446;0.000;0.000;2023-12-28T06:30:11;0.20;;;0.03;;
83511;SDS011;73446;0.000;0.000;2023-12-28T06:32:56;0.20;;;0.17;;
83511;SDS011;73446;0.000;0.000;2023-12-28T06:35:40;0.20;;;0.00;;
83511;SDS011;73446;0.000;0.000;2023-12-28T06:38:24;0.10;;;0.10;;
83511;SDS011;73446;0.000;0.000;2023-12-28T06:41:10;0.38;;;0.00;;
83511;SDS011;73446;0.000;0.000;2023-12-28T06:43:55;0.10;;;0.00;;
83511;SDS011;73446;0.000;0.000;2023-12-28T06:46:39;0.10;;;0.00;;
83511;SDS011;73446;0.000;0.000;2023-12-28T06:49:23;0.22;;;0.00;;
83511;SDS011;73446;0.000;0.000;2023-12-28T06:52:07;0.10;;;0.00;;
83511;SDS011;73446;0.000;0.000;2023-12-28T06:54:51;0.20;;;0.15;;
83511;SDS011;73446;0.000;0.000;2023-12-28T06:57:37;0.10;;;0.00;;
83511;SDS011;73446;0.000;0.000;2023-12-28T07:00:21;0.30;;;0.00;;
83511;SDS011;73446;0.000;0.000;2023-12-28T07:03:05;0.25;;;0.10;;
83511;SDS011;73446;0.000;0.000;2023-12-28T07:05:49;0.13;;;0.00;;
83511;SDS011;73446;0.000;0.000;2023-12-28T07:08:33;0.10;;;0.00;;
83511;SDS011;73446;0.000;0.000;2023-12-28T07:11:17;0.00;;;0.00;;
83511;SDS011;73446;0.000;0.000;2023-12-28T07:14:01;0.63;;;0.00;;
83511;SDS011;73446;0.000;0.000;2023-12-28T07:16:45;0.10;;;0.00;;
83511;SDS011;73446;0.000;0.000;2023-12-28T07:19:29;0.10;;;0.00;;
83511;SDS011;73446;0.000;0.000;2023-12-28T07:22:13;0.00;;;0.00;;
83511;SDS011;73446;0.000;0.000;2023-12-28T07:24:57;0.85;;;0.03;;
83511;SDS011;73446;0.000;0.000;2023-12-28T07:27:41;1.80;;;0.10;;
83511;SDS011;73446;0.000;0.000;2023-12-28T07:30:25;0.45;;;0.35;;
83511;SDS011;73446;0.000;0.000;2023-12-28T07:33:09;1.58;;;0.00;;
83511;SDS011;73446;0.000;0.000;2023-12-28T07:35:57;2.58;;;0.00;;
83511;SDS011;73446;0.000;0.000;2023-12-28T07:38:43;6.15;;;0.35;;
83511;SDS011;73446;0.000;0.000;2023-12-28T07:41:28;4.22;;;0.00;;
83511;SDS011;73446;0.000;0.000;2023-12-28T07:44:12;2.40;;;0.20;;
83511;SDS011;73446;0.000;0.000;2023-12-28T07:46:56;2.53;;;0.00;;
83511;SDS011;73446;0.000;0.000;2023-12-28T07:49:40;1.85;;;0.00;;
83511;SDS011;73446;0.000;0.000;2023-12-28T07:52:24;1.20;;;0.00;;
83511;SDS011;73446;0.000;0.000;2023-12-28T07:55:08;0.63;;;0.10;;
83511;SDS011;73446;0.000;0.000;2023-12-28T07:57:53;1.73;;;0.00;;
83511;SDS011;73446;0.000;0.000;2023-12-28T08:00:37;1.38;;;0.40;;
83511;SDS011;73446;0.000;0.000;2023-12-28T08:03:22;1.55;;;0.20;;
83511;SDS011;73446;0.000;0.000;2023-12-28T08:06:06;1.27;;;0.40;;
83511;SDS011;73446;0.000;0.000;2023-12-28T08:08:51;0.85;;;0.00;;
83511;SDS011;73446;0.000;0.000;2023-12-28T08:11:35;3.25;;;0.00;;
83511;SDS011;73446;0.000;0.000;2023-12-28T08:14:19;1.77;;;0.08;;
83511;SDS011;73446;0.000;0.000;2023-12-28T08:17:03;5.00;;;0.00;;
83511;SDS011;73446;0.000;0.000;2023-12-28T08:19:48;6.25;;;0.00;;
83511;SDS011;73446;0.000;0.000;2023-12-28T08:22:32;0.63;;;0.00;;
83511;SDS011;73446;0.000;0.000;2023-12-28T08:25:17;1.25;;;0.00;;
83511;SDS011;73446;0.000;0.000;2023-12-28T08:28:02;2.30;;;0.00;;
83511;SDS011;73446;0.000;0.000;2023-12-28T08:30:46;3.00;;;0.10;;
83511;SDS011;73446;0.000;0.000;2023-12-28T08:33:30;1.45;;;0.32;;
83511;SDS011;73446;0.000;0.000;2023-12-28T08:36:14;4.80;;;0.20;;
83511;SDS011;73446;0.000;0.000;2023-12-28T08:39:01;0.32;;;0.00;;
83511;SDS011;73446;0.000;0.000;2023-12-28T08:41:45;2.20;;;0.00;;
83511;SDS011;73446;0.000;0.000;2023-12-28T08:44:29;2.72;;;0.10;;
83511;SDS011;73446;0.000;0.000;2023-12-28T08:47:13;1.13;;;0.00;;
83511;SDS011;73446;0.000;0.000;2023-12-28T08:49:57;0.90;;;0.10;;
83511;SDS011;73446;0.000;0.000;2023-12-28T08:52:41;0.73;;;0.00;;
83511;SDS011;73446;0.000;0.000;2023-12-28T08:55:25;0.20;;;0.00;;
83511;SDS011;73446;0.000;0.000;2023-12-28T08:58:09;0.70;;;0.10;;
83511;SDS011;73446;0.000;0.000;2023-12-28T09:00:53;0.30;;;0.00;;
83511;SDS011;73446;0.000;0.000;2023-12-28T09:03:37;0.20;;;0.00;;
83511;SDS011;73446;0.000;0.000;2023-12-28T09:06:21;0.77;;;0.15;;
83511;SDS011;73446;0.000;0.000;2023-12-28T09:09:06;0.40;;;0.00;;
83511;SDS011;73446;0.000;0.000;2023-12-28T09:11:50;0.30;;;0.00;;
83511;SDS011;73446;0.000;0.000;2023-12-28T09:14:34;0.10;;;0.00;;
83511;SDS011;73446;0.000;0.000;2023-12-28T09:17:22;0.43;;;0.00;;
83511;SDS011;73446;0.000;0.000;2023-12-28T09:20:06;0.40;;;0.00;;
83511;SDS011;73446;0.000;0.000;2023-12-28T09:22:50;0.77;;;0.00;;
83511;SDS011;73446;0.000;0.000;2023-12-28T09:25:39;0.20;;;0.20;;
83511;SDS011;73446;0.000;0.000;2023-12-28T09:28:24;0.70;;;0.00;;
83511;SDS011;73446;0.000;0.000;2023-12-28T09:31:08;0.03;;;0.00;;
83511;SDS011;73446;0.000;0.000;2023-12-28T09:33:53;0.10;;;0.00;;
83511;SDS011;73446;0.000;0.000;2023-12-28T09:36:40;0.17;;;0.00;;
83511;SDS011;73446;0.000;0.000;2023-12-28T09:39:24;0.77;;;0.10;;
83511;SDS011;73446;0.000;0.000;2023-12-28T09:42:09;0.55;;;0.00;;
83511;SDS011;73446;0.000;0.000;2023-12-28T09:45:05;1.15;;;0.30;;
83511;SDS011;73446;0.000;0.000;2023-12-28T09:47:50;1.10;;;0.00;;
83511;SDS011;73446;0.000;0.000;2023-12-28T09:50:34;0.40;;;0.10;;
83511;SDS011;73446;0.000;0.000;2023-12-28T09:53:18;0.90;;;0.00;;
83511;SDS011;73446;0.000;0.000;2023-12-28T09:56:02;18.67;;;6.60;;
83511;SDS011;73446;0.000;0.000;2023-12-28T09:58:47;13.20;;;4.30;;
83511;SDS011;73446;0.000;0.000;2023-12-28T10:01:34;8.15;;;1.60;;
83511;SDS011;73446;0.000;0.000;2023-12-28T10:04:19;9.57;;;2.05;;
83511;SDS011;73446;0.000;0.000;2023-12-28T10:07:03;8.70;;;2.78;;
83511;SDS011;73446;0.000;0.000;2023-12-28T10:09:47;8.38;;;1.83;;
83511;SDS011;73446;0.000;0.000;2023-12-28T10:12:32;14.57;;;5.28;;
83511;SDS011;73446;0.000;0.000;2023-12-28T10:15:16;15.15;;;5.45;;
83511;SDS011;73446;0.000;0.000;2023-12-28T10:18:00;15.63;;;4.57;;
83511;SDS011;73446;0.000;0.000;2023-12-28T10:20:48;22.65;;;6.65;;
83511;SDS011;73446;0.000;0.000;2023-12-28T10:23:36;14.20;;;3.63;;
83511;SDS011;73446;0.000;0.000;2023-12-28T10:26:22;25.45;;;5.65;;
83511;SDS011;73446;0.000;0.000;2023-12-28T10:29:06;19.52;;;4.22;;
83511;SDS011;73446;0.000;0.000;2023-12-28T10:31:50;16.35;;;4.10;;
83511;SDS011;73446;0.000;0.000;2023-12-28T10:34:35;12.90;;;3.03;;
83511;SDS011;73446;0.000;0.000;2023-12-28T10:37:19;11.50;;;2.00;;
83511;SDS011;73446;0.000;0.000;2023-12-28T10:40:05;6.80;;;1.10;;
83511;SDS011;73446;0.000;0.000;2023-12-28T10:42:59;9.40;;;1.20;;
83511;SDS011;73446;0.000;0.000;2023-12-28T10:45:48;6.07;;;0.80;;
83511;SDS011;73446;0.000;0.000;2023-12-28T10:48:35;5.57;;;0.63;;
83511;SDS011;73446;0.000;0.000;2023-12-28T10:51:25;3.03;;;0.57;;
83511;SDS011;73446;0.000;0.000;2023-12-28T10:57:33;4.70;;;0.43;;
83511;SDS011;73446;0.000;0.000;2023-12-28T11:00:41;1.80;;;0.22;;
83511;SDS011;73446;0.000;0.000;2023-12-28T11:03:32;2.00;;;0.25;;
83511;SDS011;73446;0.000;0.000;2023-12-28T11:06:19;2.55;;;0.03;;
83511;SDS011;73446;0.000;0.000;2023-12-28T11:09:04;1.63;;;0.20;;
83511;SDS011;73446;0.000;0.000;2023-12-28T11:11:51;2.53;;;0.20;;
83511;SDS011;73446;0.000;0.000;2023-12-28T11:14:35;0.82;;;0.20;;
83511;SDS011;73446;0.000;0.000;2023-12-28T11:17:22;1.00;;;0.10;;
83511;SDS011;73446;0.000;0.000;2023-12-28T11:20:08;0.85;;;0.65;;
83511;SDS011;73446;0.000;0.000;2023-12-28T11:22:54;1.38;;;0.10;;
83511;SDS011;73446;0.000;0.000;2023-12-28T11:25:39;1.90;;;0.10;;
83511;SDS011;73446;0.000;0.000;2023-12-28T11:28:23;1.50;;;0.28;;
83511;SDS011;73446;0.000;0.000;2023-12-28T11:31:09;0.88;;;0.00;;
83511;SDS011;73446;0.000;0.000;2023-12-28T11:33:55;1.75;;;0.20;;
83511;SDS011;73446;0.000;0.000;2023-12-28T11:36:41;1.10;;;0.10;;
83511;SDS011;73446;0.000;0.000;2023-12-28T11:42:27;1.13;;;0.10;;
83511;SDS011;73446;0.000;0.000;2023-12-28T11:45:11;1.30;;;0.28;;
83511;SDS011;73446;0.000;0.000;2023-12-28T11:48:01;1.92;;;0.00;;
83511;SDS011;73446;0.000;0.000;2023-12-28T11:50:46;0.98;;;0.10;;
83511;SDS011;73446;0.000;0.000;2023-12-28T11:53:30;2.88;;;0.10;;
83511;SDS011;73446;0.000;0.000;2023-12-28T11:56:15;0.70;;;0.22;;
83511;SDS011;73446;0.000;0.000;2023-12-28T11:59:00;2.67;;;0.20;;
83511;SDS011;73446;0.000;0.000;2023-12-28T12:01:48;1.23;;;0.10;;
83511;SDS011;73446;0.000;0.000;2023-12-28T12:04:36;1.85;;;0.10;;
83511;SDS011;73446;0.000;0.000;2023-12-28T12:07:19;1.42;;;0.00;;
83511;SDS011;73446;0.000;0.000;2023-12-28T12:10:04;2.58;;;0.20;;
83511;SDS011;73446;0.000;0.000;2023-12-28T12:12:51;1.27;;;0.10;;
83511;SDS011;73446;0.000;0.000;2023-12-28T12:15:36;1.95;;;0.00;;
83511;SDS011;73446;0.000;0.000;2023-12-28T12:18:20;1.85;;;0.10;;
83511;SDS011;73446;0.000;0.000;2023-12-28T12:21:04;1.30;;;0.20;;
83511;SDS011;73446;0.000;0.000;2023-12-28T12:23:50;1.58;;;0.03;;
83511;SDS011;73446;0.000;0.000;2023-12-28T12:26:34;1.15;;;0.17;;
83511;SDS011;73446;0.000;0.000;2023-12-28T12:29:20;1.40;;;0.45;;
83511;SDS011;73446;0.000;0.000;2023-12-28T12:32:04;0.88;;;0.03;;
83511;SDS011;73446;0.000;0.000;2023-12-28T12:34:49;0.57;;;0.20;;
83511;SDS011;73446;0.000;0.000;2023-12-28T12:37:34;1.65;;;0.00;;
83511;SDS011;73446;0.000;0.000;2023-12-28T12:40:18;1.10;;;0.05;;
83511;SDS011;73446;0.000;0.000;2023-12-28T12:43:04;1.92;;;0.10;;
83511;SDS011;73446;0.000;0.000;2023-12-28T12:45:52;1.67;;;0.20;;
83511;SDS011;73446;0.000;0.000;2023-12-28T12:48:37;0.93;;;0.00;;
83511;SDS011;73446;0.000;0.000;2023-12-28T12:51:21;1.13;;;0.17;;
83511;SDS011;73446;0.000;0.000;2023-12-28T12:54:05;0.60;;;0.10;;
83511;SDS011;73446;0.000;0.000;2023-12-28T12:56:52;0.68;;;0.00;;
83511;SDS011;73446;0.000;0.000;2023-12-28T12:59:37;0.47;;;0.00;;
83511;SDS011;73446;0.000;0.000;2023-12-28T13:02:24;1.38;;;0.10;;
83511;SDS011;73446;0.000;0.000;2023-12-28T13:05:11;0.45;;;0.00;;
83511;SDS011;73446;0.000;0.000;2023-12-28T13:07:56;0.60;;;0.00;;
83511;SDS011;73446;0.000;0.000;2023-12-28T13:10:40;1.98;;;0.00;;
83511;SDS011;73446;0.000;0.000;2023-12-28T13:13:24;1.17;;;0.00;;
83511;SDS011;73446;0.000;0.000;2023-12-28T13:16:08;0.20;;;0.00;;
83511;SDS011;73446;0.000;0.000;2023-12-28T13:18:53;0.98;;;0.00;;
83511;SDS011;73446;0.000;0.000;2023-12-28T13:21:37;0.25;;;0.00;;
83511;SDS011;73446;0.000;0.000;2023-12-28T13:24:21;0.30;;;0.00;;
83511;SDS011;73446;0.000;0.000;2023-12-28T13:27:05;0.82;;;0.00;;
83511;SDS011;73446;0.000;0.000;2023-12-28T13:29:49;1.05;;;0.00;;
83511;SDS011;73446;0.000;0.000;2023-12-28T13:32:33;0.20;;;0.00;;
83511;SDS011;73446;0.000;0.000;2023-12-28T13:35:17;1.25;;;0.00;;
83511;SDS011;73446;0.000;0.000;2023-12-28T13:38:02;1.05;;;0.00;;
83511;SDS011;73446;0.000;0.000;2023-12-28T13:40:46;0.20;;;0.00;;
83511;SDS011;73446;0.000;0.000;2023-12-28T13:43:30;0.15;;;0.00;;
83511;SDS011;73446;0.000;0.000;2023-12-28T13:46:14;0.88;;;0.03;;
83511;SDS011;73446;0.000;0.000;2023-12-28T13:48:59;0.63;;;0.08;;
83511;SDS011;73446;0.000;0.000;2023-12-28T13:51:43;0.20;;;0.00;;
83511;SDS011;73446;0.000;0.000;2023-12-28T13:54:27;0.50;;;0.00;;
83511;SDS011;73446;0.000;0.000;2023-12-28T13:57:11;1.13;;;0.00;;
83511;SDS011;73446;0.000;0.000;2023-12-28T13:59:55;1.17;;;0.00;;
83511;SDS011;73446;0.000;0.000;2023-12-28T14:02:43;3.05;;;0.10;;
83511;SDS011;73446;0.000;0.000;2023-12-28T14:05:27;0.65;;;0.08;;
83511;SDS011;73446;0.000;0.000;2023-12-28T14:08:12;5.75;;;0.25;;
83511;SDS011;73446;0.000;0.000;2023-12-28T14:10:56;2.10;;;0.45;;
83511;SDS011;73446;0.000;0.000;2023-12-28T14:13:40;2.00;;;0.00;;
83511;SDS011;73446;0.000;0.000;2023-12-28T14:16:24;2.67;;;0.08;;
83511;SDS011;73446;0.000;0.000;2023-12-28T14:19:08;4.47;;;0.03;;
83511;SDS011;73446;0.000;0.000;2023-12-28T14:21:52;7.47;;;0.00;;
83511;SDS011;73446;0.000;0.000;2023-12-28T14:24:36;4.88;;;0.00;;
83511;SDS011;73446;0.000;0.000;2023-12-28T14:27:21;2.20;;;0.00;;
83511;SDS011;73446;0.000;0.000;2023-12-28T14:30:06;4.05;;;0.15;;
83511;SDS011;73446;0.000;0.000;2023-12-28T14:32:53;3.47;;;0.00;;
83511;SDS011;73446;0.000;0.000;2023-12-28T14:35:38;4.10;;;0.30;;
83511;SDS011;73446;0.000;0.000;2023-12-28T14:38:25;5.75;;;0.43;;
83511;SDS011;73446;0.000;0.000;2023-12-28T14:41:09;3.75;;;0.00;;
83511;SDS011;73446;0.000;0.000;2023-12-28T14:43:55;8.75;;;0.47;;
83511;SDS011;73446;0.000;0.000;2023-12-28T14:46:39;1.73;;;0.00;;
83511;SDS011;73446;0.000;0.000;2023-12-28T14:49:26;3.65;;;0.00;;
83511;SDS011;73446;0.000;0.000;2023-12-28T14:52:10;2.05;;;0.00;;
83511;SDS011;73446;0.000;0.000;2023-12-28T14:54:54;1.60;;;0.10;;
83511;SDS011;73446;0.000;0.000;2023-12-28T14:57:38;0.77;;;0.03;;
83511;SDS011;73446;0.000;0.000;2023-12-28T15:00:22;6.05;;;0.30;;
83511;SDS011;73446;0.000;0.000;2023-12-28T15:03:06;5.68;;;0.00;;
83511;SDS011;73446;0.000;0.000;2023-12-28T15:05:51;7.30;;;0.00;;
83511;SDS011;73446;0.000;0.000;2023-12-28T15:08:35;5.80;;;0.20;;
83511;SDS011;73446;0.000;0.000;2023-12-28T15:11:19;3.33;;;1.30;;
83511;SDS011;73446;0.000;0.000;2023-12-28T15:14:03;3.33;;;0.10;;
83511;SDS011;73446;0.000;0.000;2023-12-28T15:16:49;3.08;;;0.10;;
83511;SDS011;73446;0.000;0.000;2023-12-28T15:19:33;5.38;;;0.15;;
83511;SDS011;73446;0.000;0.000;2023-12-28T15:22:17;9.27;;;0.20;;
83511;SDS011;73446;0.000;0.000;2023-12-28T15:25:05;5.10;;;0.10;;
83511;SDS011;73446;0.000;0.000;2023-12-28T15:27:52;5.72;;;0.25;;
83511;SDS011;73446;0.000;0.000;2023-12-28T15:30:36;6.43;;;0.00;;
83511;SDS011;73446;0.000;0.000;2023-12-28T15:33:20;2.33;;;0.00;;
83511;SDS011;73446;0.000;0.000;2023-12-28T15:36:06;3.35;;;0.00;;
83511;SDS011;73446;0.000;0.000;2023-12-28T15:38:50;3.83;;;0.10;;
83511;SDS011;73446;0.000;0.000;2023-12-28T15:41:34;7.82;;;0.22;;
83511;SDS011;73446;0.000;0.000;2023-12-28T15:44:18;1.90;;;0.22;;
83511;SDS011;73446;0.000;0.000;2023-12-28T15:47:02;5.60;;;0.00;;
83511;SDS011;73446;0.000;0.000;2023-12-28T15:49:46;8.80;;;0.20;;
83511;SDS011;73446;0.000;0.000;2023-12-28T15:52:31;5.22;;;0.10;;
83511;SDS011;73446;0.000;0.000;2023-12-28T15:55:14;5.97;;;0.00;;
83511;SDS011;73446;0.000;0.000;2023-12-28T15:57:59;3.63;;;0.32;;
83511;SDS011;73446;0.000;0.000;2023-12-28T16:00:43;4.95;;;0.00;;
83511;SDS011;73446;0.000;0.000;2023-12-28T16:03:27;1.65;;;0.13;;
83511;SDS011;73446;0.000;0.000;2023-12-28T16:06:11;2.88;;;0.00;;
83511;SDS011;73446;0.000;0.000;2023-12-28T16:08:55;2.03;;;0.10;;
83511;SDS011;73446;0.000;0.000;2023-12-28T16:11:40;4.07;;;0.70;;
83511;SDS011;73446;0.000;0.000;2023-12-28T16:14:24;1.25;;;0.10;;
83511;SDS011;73446;0.000;0.000;2023-12-28T16:17:08;2.63;;;0.00;;
83511;SDS011;73446;0.000;0.000;2023-12-28T16:19:54;1.27;;;0.03;;
83511;SDS011;73446;0.000;0.000;2023-12-28T16:22:38;4.57;;;0.05;;
83511;SDS011;73446;0.000;0.000;2023-12-28T16:25:22;3.67;;;0.10;;
83511;SDS011;73446;0.000;0.000;2023-12-28T16:28:07;7.63;;;0.22;;
83511;SDS011;73446;0.000;0.000;2023-12-28T16:30:51;5.53;;;0.20;;
83511;SDS011;73446;0.000;0.000;2023-12-28T16:33:35;7.10;;;0.32;;
83511;SDS011;73446;0.000;0.000;2023-12-28T16:36:19;2.47;;;0.00;;
83511;SDS011;73446;0.000;0.000;2023-12-28T16:39:06;1.58;;;0.00;;
83511;SDS011;73446;0.000;0.000;2023-12-28T16:41:50;4.28;;;0.10;;
83511;SDS011;73446;0.000;0.000;2023-12-28T16:44:35;3.83;;;0.22;;
83511;SDS011;73446;0.000;0.000;2023-12-28T16:47:19;0.50;;;0.00;;
83511;SDS011;73446;0.000;0.000;2023-12-28T16:50:02;6.20;;;0.28;;
83511;SDS011;73446;0.000;0.000;2023-12-28T16:52:46;3.63;;;0.00;;
83511;SDS011;73446;0.000;0.000;2023-12-28T16:55:30;6.07;;;0.20;;